Terminal Aerodrome Forecast
Issued by NWS

Current Version | Previous Version | Text Only | Print | Product List | Glossary On
Versions: 1 2 3 4 5 6 7 8 9 10 11 12 13 14 15 16
068
FTUS41 KBGM 262337
TAFRME
TAF
KRME 262337Z 2700/2724 14008KT P6SM -SHRA OVC040
     FM270300 14006KT P6SM -SHRA OVC025
      TEMPO 2703/2707 3SM -SHRA BR OVC015
     FM270800 VRB03KT P6SM BKN025
     FM271400 24007KT P6SM SCT040=

USA.gov is the U.S. government's official web portal to all federal, state and local government web resources and services.